KSDF Airport Diagram

We have created a template for each of the higher traffic airports in the vZID airspace. They include KCMH, KCRW, KCVG, KDAY, KIND, KLEX and KSDF. You wil find usefull information including the airport diagram, weather, and specific airport procedures.

KSDF Weather

[Source: ADDS]
METAR
KSDF 230356Z 35006KT 10SM SCT028 BKN050 BKN250 25/21 A2998 RMK AO2 SLP147 T02500211 =
KSDF 230332Z 2304/2406 35005KT P6SM SCT025 BKN120 FM231000 01005KT P6SM SCT015 BKN025 OVC040 FM231200 03005KT P6SM BKN018 FM231800 03006KT P6SM VCSH BKN040 PROB30 2318/2324 P6SM -TSRA BKN025CB
TAF
KSDF 230332Z 2304/2406 35005KT P6SM SCT025 BKN120 FM231000 01005KT P6SM SCT015 BKN025 OVC040 FM231200 03005KT P6SM BKN018 FM231800 03006KT P6SM VCSH BKN040 PROB30 2318/2324 P6SM -TSRA BKN025CB =

KSDF Operations

Calm Wind Configuration is runways 17L and 17R.

Runway 17L typically departs north and east.

Runway 17R typicall departs south and west.

 

JSN Epic template designed by JoomlaShine.com